Terminal Aerodrome Forecast
Issued by NWS

Home | Current Version | Previous Version | Text Only | Print | Product List | Glossary On
Versions: 1 2 3 4 5 6 7 8 9 10 11 12 13 14 15 16 17 18 19 20 21 22 23 24 25 26 27 28 29 30 31 32 33 34 35 36 37 38 39 40 41 42 43 44 45
000
FTUS44 KHGX 072320
TAFIAH
TAF
KIAH 072320Z 0800/0906 16013KT P6SM FEW030 SCT250
     FM080200 15008KT P6SM SCT250
     FM080900 17006KT P6SM SCT015
     FM081500 17010KT P6SM SCT030
     FM081900 18014KT P6SM SCT040 SCT250=

USA.gov is the U.S. government's official web portal to all federal, state and local government web resources and services.